createdAt,value
2023-04-09T00:01:04.329Z,100361.72
2023-04-09T00:03:31.861Z,100375.13
2023-04-09T00:06:01.198Z,100373.53
2023-04-09T00:08:28.583Z,100380.34
2023-04-09T00:10:57.312Z,100376.81
2023-04-09T00:13:35.373Z,100376.97
2023-04-09T00:16:06.471Z,100372.31
2023-04-09T00:18:33.789Z,100374.16
2023-04-09T00:21:02.613Z,100376.00
2023-04-09T00:23:29.949Z,100369.50
2023-04-09T00:25:57.451Z,100364.41
2023-04-09T00:28:24.787Z,100360.56
2023-04-09T00:30:52.073Z,100373.59
2023-04-09T00:33:19.586Z,100370.56
2023-04-09T00:35:47.029Z,100367.53
2023-04-09T00:38:16.484Z,100372.72
2023-04-09T00:40:44.175Z,100371.22
2023-04-09T00:43:12.172Z,100372.81
2023-04-09T00:45:39.769Z,100371.22
2023-04-09T00:48:07.504Z,100370.75
2023-04-09T00:50:34.863Z,100372.97
2023-04-09T00:53:02.163Z,100366.66
2023-04-09T00:55:31.601Z,100369.13
2023-04-09T00:57:58.891Z,100374.09
2023-04-09T01:00:27.774Z,100358.69
2023-04-09T01:02:57.732Z,100357.78
2023-04-09T01:05:31.499Z,100361.03
2023-04-09T01:08:05.388Z,100365.03
2023-04-09T01:10:38.472Z,100358.72
2023-04-09T01:13:12.750Z,100366.94
2023-04-09T01:15:47.323Z,100373.16
2023-04-09T01:18:22.806Z,100369.19
2023-04-09T01:20:57.196Z,100364.63
2023-04-09T01:23:35.532Z,100373.88
2023-04-09T01:26:11.000Z,100382.09
2023-04-09T01:28:50.906Z,100365.13
2023-04-09T01:31:20.453Z,100358.81
2023-04-09T01:33:48.106Z,100372.63
2023-04-09T01:36:16.659Z,100370.91
2023-04-09T01:38:45.918Z,100376.78
2023-04-09T01:41:17.532Z,100373.44
2023-04-09T01:43:48.476Z,100367.53
2023-04-09T01:46:16.800Z,100373.66
2023-04-09T01:48:44.230Z,100374.66
2023-04-09T01:51:14.246Z,100368.28
2023-04-09T01:53:42.339Z,100377.00
2023-04-09T01:56:10.208Z,100376.31
2023-04-09T01:58:37.750Z,100368.50
2023-04-09T02:01:12.897Z,100380.38
2023-04-09T02:03:45.417Z,100371.44
2023-04-09T02:06:16.280Z,100362.06
2023-04-09T02:08:46.561Z,100379.03
2023-04-09T02:11:15.396Z,100356.38
2023-04-09T02:13:44.401Z,100370.19
2023-04-09T02:16:34.180Z,100378.31
2023-04-09T02:19:01.565Z,100375.88
2023-04-09T02:21:29.753Z,100373.97
2023-04-09T02:23:57.058Z,100374.88
2023-04-09T02:26:25.111Z,100372.84
2023-04-09T02:28:52.473Z,100370.19
2023-04-09T02:31:19.809Z,100371.63
2023-04-09T02:33:48.604Z,100372.03
2023-04-09T02:36:16.205Z,100377.19
2023-04-09T02:38:43.774Z,100373.47
2023-04-09T02:41:11.286Z,100375.28
2023-04-09T02:43:38.602Z,100364.28
2023-04-09T02:46:07.868Z,100368.56
2023-04-09T02:48:36.057Z,100369.28
2023-04-09T02:51:08.204Z,100370.91
2023-04-09T02:53:35.692Z,100381.06
2023-04-09T02:56:03.028Z,100375.66
2023-04-09T02:58:30.327Z,100386.03
2023-04-09T03:00:57.569Z,100372.81
2023-04-09T03:03:25.064Z,100379.00
2023-04-09T03:05:52.477Z,100373.19
2023-04-09T03:08:21.188Z,100369.94
2023-04-09T03:10:48.652Z,100372.38
2023-04-09T03:13:16.160Z,100376.47
2023-04-09T03:15:43.719Z,100371.91
2023-04-09T03:18:10.993Z,100380.81
2023-04-09T03:20:39.339Z,100375.66
2023-04-09T03:23:09.235Z,100379.91
2023-04-09T03:25:42.788Z,100379.31
2023-04-09T03:28:16.417Z,100381.63
2023-04-09T03:30:50.700Z,100380.81
2023-04-09T03:33:19.716Z,100377.50
2023-04-09T03:35:53.645Z,100377.69
2023-04-09T03:38:33.743Z,100380.94
2023-04-09T03:41:07.197Z,100383.28
2023-04-09T03:43:34.756Z,100384.38
2023-04-09T03:46:02.356Z,100381.41
2023-04-09T03:48:30.479Z,100388.50
2023-04-09T03:50:58.704Z,100381.03
2023-04-09T03:53:34.337Z,100382.75
2023-04-09T03:56:07.699Z,100385.38
2023-04-09T03:58:36.423Z,100382.22
2023-04-09T04:01:04.183Z,100380.50
2023-04-09T04:03:50.874Z,100386.47
2023-04-09T04:06:22.430Z,100385.56
2023-04-09T04:09:01.723Z,100384.38
2023-04-09T04:11:41.407Z,100380.44
2023-04-09T04:14:08.969Z,100379.31
2023-04-09T04:16:36.324Z,100380.03
2023-04-09T04:19:06.304Z,100380.72
2023-04-09T04:21:40.858Z,100380.56
2023-04-09T04:24:08.310Z,100377.00
2023-04-09T04:26:35.752Z,100369.97
2023-04-09T04:29:05.164Z,100372.13
2023-04-09T04:31:44.943Z,100376.09
2023-04-09T04:34:13.539Z,100371.53
2023-04-09T04:36:43.349Z,100374.25
2023-04-09T04:39:10.657Z,100369.69
2023-04-09T04:41:49.653Z,100381.19
2023-04-09T04:44:23.878Z,100372.44
2023-04-09T04:46:57.537Z,100375.28
2023-04-09T04:49:24.912Z,100382.22
2023-04-09T04:51:52.202Z,100379.88
2023-04-09T04:54:19.779Z,100382.19
2023-04-09T04:56:53.427Z,100382.78
2023-04-09T04:59:42.517Z,100373.66
2023-04-09T05:02:12.265Z,100377.28
2023-04-09T05:04:51.788Z,100383.69
2023-04-09T05:07:22.150Z,100373.94
2023-04-09T05:09:53.477Z,100380.91
2023-04-09T05:12:20.914Z,100381.09
2023-04-09T05:14:53.238Z,100375.78
2023-04-09T05:17:20.654Z,100379.72
2023-04-09T05:19:51.795Z,100381.84
2023-04-09T05:22:22.605Z,100384.44
2023-04-09T05:24:50.013Z,100379.78
2023-04-09T05:27:19.597Z,100376.09
2023-04-09T05:29:49.373Z,100380.97
2023-04-09T05:32:18.956Z,100376.50
2023-04-09T05:34:46.932Z,100381.03
2023-04-09T05:37:14.337Z,100379.66
2023-04-09T05:39:46.085Z,100383.59
2023-04-09T05:42:14.273Z,100384.72
2023-04-09T05:44:52.399Z,100389.13
2023-04-09T05:47:22.958Z,100392.50
2023-04-09T05:50:01.951Z,100390.16
2023-04-09T05:52:30.516Z,100390.22
2023-04-09T05:54:58.356Z,100389.41
2023-04-09T05:57:38.026Z,100389.81
2023-04-09T06:00:06.784Z,100390.56
2023-04-09T06:02:45.691Z,100399.34
2023-04-09T06:05:13.226Z,100403.47
2023-04-09T06:07:40.955Z,100397.41
2023-04-09T06:10:09.307Z,100401.03
2023-04-09T06:12:36.790Z,100396.84
2023-04-09T06:15:05.015Z,100403.44
2023-04-09T06:17:33.275Z,100401.31
2023-04-09T06:20:02.120Z,100409.13
2023-04-09T06:22:30.722Z,100409.00
2023-04-09T06:24:58.038Z,100406.28
2023-04-09T06:27:25.495Z,100409.41
2023-04-09T06:29:53.040Z,100409.13
2023-04-09T06:32:20.614Z,100413.06
2023-04-09T06:34:48.501Z,100401.19
2023-04-09T06:37:17.293Z,100407.94
2023-04-09T06:39:50.676Z,100411.03
2023-04-09T06:42:27.930Z,100397.28
2023-04-09T06:45:17.319Z,100400.78
2023-04-09T06:47:44.725Z,100402.91
2023-04-09T06:50:14.407Z,100408.03
2023-04-09T06:52:43.161Z,100409.34
2023-04-09T06:55:11.636Z,100398.81
2023-04-09T06:57:40.049Z,100398.50
2023-04-09T07:00:08.665Z,100402.56
2023-04-09T07:02:36.529Z,100409.50
2023-04-09T07:05:04.496Z,100413.19
2023-04-09T07:07:32.322Z,100408.75
2023-04-09T07:10:01.858Z,100414.81
2023-04-09T07:12:31.886Z,100413.16
2023-04-09T07:14:59.528Z,100409.31
2023-04-09T07:17:26.932Z,100417.63
2023-04-09T07:19:54.633Z,100414.50
2023-04-09T07:22:22.924Z,100411.97
2023-04-09T07:24:54.435Z,100420.75
2023-04-09T07:27:25.262Z,100397.34
2023-04-09T07:29:55.180Z,100407.47
2023-04-09T07:32:22.535Z,100428.03
2023-04-09T07:34:51.660Z,100424.66
2023-04-09T07:37:19.173Z,100418.56
2023-04-09T07:39:46.892Z,100415.56
2023-04-09T07:42:14.485Z,100416.13
2023-04-09T07:44:44.030Z,100425.22
2023-04-09T07:47:13.011Z,100423.66
2023-04-09T07:49:40.497Z,100416.59
2023-04-09T07:52:08.367Z,100420.28
2023-04-09T07:54:35.962Z,100416.88
2023-04-09T07:57:03.449Z,100415.06
2023-04-09T07:59:31.785Z,100418.91
2023-04-09T08:02:00.621Z,100414.97
2023-04-09T08:04:28.414Z,100421.19
2023-04-09T08:06:56.179Z,100416.91
2023-04-09T08:09:23.408Z,100412.16
2023-04-09T08:11:50.955Z,100417.72
2023-04-09T08:14:18.766Z,100413.25
2023-04-09T08:16:47.790Z,100410.63
2023-04-09T08:19:17.948Z,100414.09
2023-04-09T08:21:46.201Z,100415.31
2023-04-09T08:24:13.645Z,100403.28
2023-04-09T08:26:42.207Z,100407.63
2023-04-09T08:29:11.752Z,100398.97
2023-04-09T08:31:39.408Z,100401.50
2023-04-09T08:34:07.393Z,100394.69
2023-04-09T08:36:36.363Z,100393.41
2023-04-09T08:39:04.098Z,100401.34
2023-04-09T08:41:32.004Z,100398.63
2023-04-09T08:43:59.936Z,100389.75
2023-04-09T08:46:28.099Z,100387.44
2023-04-09T08:48:56.333Z,100400.53
2023-04-09T08:51:25.084Z,100395.03
2023-04-09T08:53:57.391Z,100396.44
2023-04-09T08:56:26.270Z,100394.66
2023-04-09T08:58:54.150Z,100392.88
2023-04-09T09:01:23.598Z,100401.59
2023-04-09T09:03:59.212Z,100396.66
2023-04-09T09:06:28.926Z,100392.94
2023-04-09T09:09:06.278Z,100391.25
2023-04-09T09:11:34.444Z,100390.97
2023-04-09T09:14:03.658Z,100395.50
2023-04-09T09:16:33.247Z,100392.78
2023-04-09T09:19:01.311Z,100388.28
2023-04-09T09:21:29.425Z,100393.00
2023-04-09T09:23:57.649Z,100388.78
2023-04-09T09:26:27.664Z,100385.25
2023-04-09T09:28:56.203Z,100377.84
2023-04-09T09:31:23.673Z,100375.91
2023-04-09T09:33:51.825Z,100378.22
2023-04-09T09:36:37.197Z,100369.56
2023-04-09T09:39:05.435Z,100380.69
2023-04-09T09:41:34.065Z,100380.81
2023-04-09T09:44:01.647Z,100378.19
2023-04-09T09:46:34.453Z,100366.44
2023-04-09T09:49:01.797Z,100372.41
2023-04-09T09:51:29.377Z,100369.78
2023-04-09T09:53:57.723Z,100372.06
2023-04-09T09:56:32.723Z,100373.97
2023-04-09T09:59:07.855Z,100365.63
2023-04-09T10:01:36.860Z,100374.03
2023-04-09T10:04:07.323Z,100368.22
2023-04-09T10:06:35.077Z,100359.41
2023-04-09T10:09:06.884Z,100364.84
2023-04-09T10:11:36.904Z,100364.28
2023-04-09T10:14:05.911Z,100355.88
2023-04-09T10:16:33.447Z,100356.78
2023-04-09T10:19:02.232Z,100364.88
2023-04-09T10:21:36.982Z,100360.75
2023-04-09T10:24:07.984Z,100362.72
2023-04-09T10:26:36.579Z,100349.84
2023-04-09T10:29:11.734Z,100361.16
2023-04-09T10:31:53.678Z,100351.34
2023-04-09T10:34:23.626Z,100360.22
2023-04-09T10:36:53.624Z,100348.88
2023-04-09T10:39:21.131Z,100354.56
2023-04-09T10:41:50.078Z,100341.00
2023-04-09T10:44:22.672Z,100341.28
2023-04-09T10:46:51.478Z,100333.19
2023-04-09T10:49:20.395Z,100340.28
2023-04-09T10:51:54.751Z,100340.41
2023-04-09T10:54:48.398Z,100345.75
2023-04-09T10:57:18.304Z,100343.63
2023-04-09T10:59:48.399Z,100346.88
2023-04-09T11:02:56.706Z,100354.00
2023-04-09T11:05:30.859Z,100343.69
2023-04-09T11:08:07.399Z,100341.69
2023-04-09T11:10:35.269Z,100330.63
2023-04-09T11:13:03.394Z,100346.88
2023-04-09T11:15:35.376Z,100346.81
2023-04-09T11:18:03.467Z,100331.03
2023-04-09T11:20:31.385Z,100327.56
2023-04-09T11:23:00.541Z,100332.66
2023-04-09T11:25:29.903Z,100326.13
2023-04-09T11:27:57.960Z,100337.88
2023-04-09T11:30:25.374Z,100324.84
2023-04-09T11:32:54.228Z,100326.81
2023-04-09T11:35:22.740Z,100319.41
2023-04-09T11:37:52.434Z,100323.22
2023-04-09T11:40:21.578Z,100326.63
2023-04-09T11:42:50.938Z,100320.97
2023-04-09T11:45:19.796Z,100324.03
2023-04-09T11:47:47.447Z,100320.50
2023-04-09T11:50:16.834Z,100310.16
2023-04-09T11:52:45.597Z,100312.59
2023-04-09T11:55:22.982Z,100305.66
2023-04-09T11:57:52.153Z,100312.88
2023-04-09T12:00:20.404Z,100307.63
2023-04-09T12:02:49.389Z,100305.72
2023-04-09T12:05:24.869Z,100309.56
2023-04-09T12:07:57.222Z,100303.94
2023-04-09T12:10:28.293Z,100303.28
2023-04-09T12:12:56.409Z,100293.31
2023-04-09T12:15:25.495Z,100303.94
2023-04-09T12:17:55.463Z,100298.97
2023-04-09T12:20:32.432Z,100294.97
2023-04-09T12:23:01.397Z,100294.16
2023-04-09T12:25:29.032Z,100297.38
2023-04-09T12:27:57.014Z,100299.59
2023-04-09T12:30:24.570Z,100294.56
2023-04-09T12:32:52.982Z,100289.72
2023-04-09T12:35:21.367Z,100294.19
2023-04-09T12:37:50.530Z,100299.97
2023-04-09T12:40:20.725Z,100293.75
2023-04-09T12:42:48.491Z,100294.94
2023-04-09T12:45:17.679Z,100297.69
2023-04-09T12:47:45.601Z,100292.47
2023-04-09T12:50:15.100Z,100289.00
2023-04-09T12:52:43.167Z,100285.81
2023-04-09T12:55:13.136Z,100281.22
2023-04-09T12:57:47.354Z,100276.34
2023-04-09T13:00:16.047Z,100282.22
2023-04-09T13:02:43.494Z,100274.78
2023-04-09T13:05:11.110Z,100279.09
2023-04-09T13:07:39.080Z,100286.09
2023-04-09T13:10:08.486Z,100283.94
2023-04-09T13:12:37.517Z,100285.13
2023-04-09T13:15:05.934Z,100286.09
2023-04-09T13:17:33.280Z,100281.50
2023-04-09T13:20:01.650Z,100284.44
2023-04-09T13:22:31.115Z,100274.69
2023-04-09T13:24:58.600Z,100284.19
2023-04-09T13:27:26.045Z,100275.66
2023-04-09T13:29:54.866Z,100277.31
2023-04-09T13:32:23.461Z,100279.44
2023-04-09T13:34:51.381Z,100275.72
2023-04-09T13:37:18.628Z,100274.13
2023-04-09T13:39:46.692Z,100271.03
2023-04-09T13:42:14.532Z,100266.88
2023-04-09T13:44:44.988Z,100275.56
2023-04-09T13:47:16.061Z,100280.53
2023-04-09T13:49:43.886Z,100270.88
2023-04-09T13:52:11.942Z,100273.50
2023-04-09T13:54:39.332Z,100273.97
2023-04-09T13:57:06.627Z,100272.22
2023-04-09T13:59:33.954Z,100279.81
2023-04-09T14:02:01.459Z,100278.50
2023-04-09T14:04:30.575Z,100276.09
2023-04-09T14:06:57.924Z,100273.03
2023-04-09T14:09:25.278Z,100274.97
2023-04-09T14:11:56.203Z,100264.03
2023-04-09T14:14:23.472Z,100270.78
2023-04-09T14:16:50.710Z,100265.47
2023-04-09T14:19:18.123Z,100261.28
2023-04-09T14:21:46.773Z,100267.75
2023-04-09T14:24:13.971Z,100263.22
2023-04-09T14:26:41.384Z,100272.59
2023-04-09T14:29:08.590Z,100270.81
2023-04-09T14:31:36.017Z,100264.50
2023-04-09T14:34:03.558Z,100254.53
2023-04-09T14:36:31.800Z,100268.38
2023-04-09T14:39:00.997Z,100264.66
2023-04-09T14:41:28.585Z,100269.19
2023-04-09T14:43:55.816Z,100266.28
2023-04-09T14:46:23.208Z,100265.97
2023-04-09T14:48:51.053Z,100262.72
2023-04-09T14:51:18.554Z,100265.31
2023-04-09T14:53:45.871Z,100266.28
2023-04-09T14:56:14.570Z,100264.69
2023-04-09T14:58:41.992Z,100264.84
2023-04-09T15:01:09.334Z,100260.34
2023-04-09T15:03:36.919Z,100262.94
2023-04-09T15:06:04.765Z,100258.06
2023-04-09T15:08:32.055Z,100263.56
2023-04-09T15:10:59.432Z,100257.78
2023-04-09T15:13:28.199Z,100259.06
2023-04-09T15:15:55.865Z,100250.81
2023-04-09T15:18:23.177Z,100256.94
2023-04-09T15:20:51.387Z,100254.66
2023-04-09T15:23:18.553Z,100257.69
2023-04-09T15:25:46.125Z,100255.44
2023-04-09T15:28:14.635Z,100263.44
2023-04-09T15:30:43.917Z,100253.63
2023-04-09T15:33:12.380Z,100250.25
2023-04-09T15:35:39.873Z,100252.53
2023-04-09T15:38:07.364Z,100252.03
2023-04-09T15:40:34.838Z,100256.25
2023-04-09T15:43:02.230Z,100247.53
2023-04-09T15:45:29.768Z,100244.13
2023-04-09T15:47:58.605Z,100249.25
2023-04-09T15:50:26.250Z,100244.56
2023-04-09T15:52:55.203Z,100247.72
2023-04-09T15:55:23.582Z,100244.81
2023-04-09T15:57:50.738Z,100245.53
2023-04-09T16:00:21.084Z,100248.34
2023-04-09T16:02:48.440Z,100244.59
2023-04-09T16:05:17.178Z,100242.78
2023-04-09T16:07:44.667Z,100240.66
2023-04-09T16:10:12.180Z,100233.00
2023-04-09T16:12:39.690Z,100242.44
2023-04-09T16:15:08.250Z,100243.19
2023-04-09T16:17:40.987Z,100239.75
2023-04-09T16:20:09.261Z,100248.41
2023-04-09T16:22:38.417Z,100250.44
2023-04-09T16:25:06.683Z,100257.16
2023-04-09T16:27:34.055Z,100246.06
2023-04-09T16:30:01.953Z,100250.84
2023-04-09T16:32:31.231Z,100254.78
2023-04-09T16:35:00.831Z,100247.53
2023-04-09T16:37:29.401Z,100235.59
2023-04-09T16:39:58.258Z,100252.81
2023-04-09T16:42:27.496Z,100248.13
2023-04-09T16:44:54.741Z,100256.13
2023-04-09T16:47:22.052Z,100260.59
2023-04-09T16:49:49.477Z,100259.00
2023-04-09T16:52:16.930Z,100260.88
2023-04-09T16:54:44.166Z,100266.00
2023-04-09T16:57:12.862Z,100263.59
2023-04-09T16:59:42.613Z,100255.06
2023-04-09T17:02:10.095Z,100267.84
2023-04-09T17:04:38.304Z,100259.41
2023-04-09T17:07:05.643Z,100264.59
2023-04-09T17:09:33.067Z,100265.66
2023-04-09T17:12:01.133Z,100264.06
2023-04-09T17:14:29.961Z,100265.97
2023-04-09T17:16:57.482Z,100264.88
2023-04-09T17:19:25.156Z,100267.59
2023-04-09T17:21:52.699Z,100270.28
2023-04-09T17:24:19.854Z,100271.38
2023-04-09T17:26:47.110Z,100274.06
2023-04-09T17:29:14.314Z,100273.66
2023-04-09T17:31:43.152Z,100273.00
2023-04-09T17:34:11.736Z,100274.19
2023-04-09T17:36:39.079Z,100286.78
2023-04-09T17:39:06.544Z,100285.25
2023-04-09T17:41:33.846Z,100280.59
2023-04-09T17:44:01.229Z,100277.56
2023-04-09T17:46:29.060Z,100268.84
2023-04-09T17:48:57.668Z,100283.56
2023-04-09T17:51:24.865Z,100279.66
2023-04-09T17:53:53.880Z,100281.25
2023-04-09T17:56:22.854Z,100281.25
2023-04-09T17:58:50.226Z,100274.53
2023-04-09T18:01:17.615Z,100283.44
2023-04-09T18:03:48.664Z,100285.47
2023-04-09T18:06:18.011Z,100276.31
2023-04-09T18:08:45.259Z,100268.78
2023-04-09T18:11:15.555Z,100272.56
2023-04-09T18:13:42.837Z,100268.50
2023-04-09T18:16:10.774Z,100268.94
2023-04-09T18:18:38.557Z,100269.44
2023-04-09T18:21:06.483Z,100261.75
2023-04-09T18:23:35.493Z,100265.44
2023-04-09T18:26:03.124Z,100271.63
2023-04-09T18:28:30.788Z,100270.03
2023-04-09T18:30:58.904Z,100258.44
2023-04-09T18:33:27.170Z,100272.34
2023-04-09T18:35:54.589Z,100271.94
2023-04-09T18:38:21.930Z,100272.06
2023-04-09T18:40:51.104Z,100280.03
2023-04-09T18:43:18.641Z,100275.03
2023-04-09T18:45:46.003Z,100270.59
2023-04-09T18:48:13.320Z,100269.63
2023-04-09T18:50:40.659Z,100264.66
2023-04-09T18:53:08.028Z,100274.63
2023-04-09T18:55:38.405Z,100267.75
2023-04-09T18:58:13.067Z,100273.00
2023-04-09T19:00:40.614Z,100268.16
2023-04-09T19:03:08.821Z,100261.16
2023-04-09T19:05:36.452Z,100261.31
2023-04-09T19:08:06.906Z,100263.47
2023-04-09T19:10:34.195Z,100266.84
2023-04-09T19:13:01.554Z,100262.53
2023-04-09T19:15:30.598Z,100268.84
2023-04-09T19:17:58.060Z,100272.22
2023-04-09T19:20:25.539Z,100266.69
2023-04-09T19:22:54.630Z,100276.13
2023-04-09T19:25:23.017Z,100270.47
2023-04-09T19:27:50.533Z,100269.00
2023-04-09T19:30:17.964Z,100275.44
2023-04-09T19:32:46.844Z,100278.41
2023-04-09T19:35:14.122Z,100270.19
2023-04-09T19:37:45.035Z,100281.63
2023-04-09T19:40:12.660Z,100276.47
2023-04-09T19:42:40.131Z,100274.28
2023-04-09T19:45:08.815Z,100281.81
2023-04-09T19:47:38.221Z,100280.53
2023-04-09T19:50:07.741Z,100280.91
2023-04-09T19:52:35.016Z,100276.03
2023-04-09T19:55:03.086Z,100280.59
2023-04-09T19:57:31.930Z,100281.13
2023-04-09T19:59:59.243Z,100284.94
2023-04-09T20:02:26.596Z,100281.97
2023-04-09T20:04:54.653Z,100271.75
2023-04-09T20:07:23.505Z,100279.44
2023-04-09T20:09:50.990Z,100280.63
2023-04-09T20:12:21.140Z,100279.50
2023-04-09T20:14:50.095Z,100282.84
2023-04-09T20:17:19.957Z,100279.63
2023-04-09T20:19:47.680Z,100282.56
2023-04-09T20:22:15.143Z,100272.34
2023-04-09T20:24:44.054Z,100281.88
2023-04-09T20:27:11.449Z,100279.69
2023-04-09T20:29:38.984Z,100271.44
2023-04-09T20:32:06.635Z,100274.97
2023-04-09T20:34:34.200Z,100273.28
2023-04-09T20:37:01.837Z,100282.34
2023-04-09T20:39:30.612Z,100274.72
2023-04-09T20:41:59.306Z,100281.50
2023-04-09T20:44:27.759Z,100277.13
2023-04-09T20:46:55.585Z,100276.53
2023-04-09T20:49:22.825Z,100284.09
2023-04-09T20:51:50.195Z,100287.19
2023-04-09T20:54:18.146Z,100279.19
2023-04-09T20:56:45.563Z,100285.09
2023-04-09T20:59:15.680Z,100291.50
2023-04-09T21:01:43.225Z,100283.41
2023-04-09T21:04:12.084Z,100286.44
2023-04-09T21:06:40.466Z,100295.34
2023-04-09T21:09:08.102Z,100287.81
2023-04-09T21:11:35.409Z,100296.97
2023-04-09T21:14:03.166Z,100290.34
2023-04-09T21:16:31.896Z,100290.25
2023-04-09T21:18:59.324Z,100279.03
2023-04-09T21:21:28.590Z,100283.53
2023-04-09T21:23:56.111Z,100289.00
2023-04-09T21:26:25.104Z,100293.44
2023-04-09T21:28:52.776Z,100291.09
2023-04-09T21:31:21.208Z,100293.53
2023-04-09T21:33:50.154Z,100294.09
2023-04-09T21:36:17.624Z,100299.53
2023-04-09T21:38:44.901Z,100288.28
2023-04-09T21:41:12.389Z,100293.84
2023-04-09T21:43:39.955Z,100290.25
2023-04-09T21:46:07.787Z,100294.22
2023-04-09T21:48:35.206Z,100281.53
2023-04-09T21:51:04.182Z,100285.72
2023-04-09T21:53:31.677Z,100281.13
2023-04-09T21:55:59.006Z,100288.78
2023-04-09T21:58:26.303Z,100294.09
2023-04-09T22:00:53.577Z,100282.06
2023-04-09T22:03:21.276Z,100281.81
2023-04-09T22:05:48.874Z,100287.72
2023-04-09T22:08:18.719Z,100291.09
2023-04-09T22:10:46.511Z,100296.88
2023-04-09T22:13:13.779Z,100291.53
2023-04-09T22:15:41.972Z,100301.63
2023-04-09T22:18:09.241Z,100288.06
2023-04-09T22:20:36.976Z,100295.13
2023-04-09T22:23:04.365Z,100293.38
2023-04-09T22:25:35.221Z,100296.84
2023-04-09T22:28:02.747Z,100293.50
2023-04-09T22:30:30.231Z,100285.25
2023-04-09T22:32:57.808Z,100294.28
2023-04-09T22:35:25.212Z,100286.63
2023-04-09T22:37:52.936Z,100294.91
2023-04-09T22:40:20.233Z,100290.47
2023-04-09T22:42:49.143Z,100292.22
2023-04-09T22:45:16.415Z,100281.22
2023-04-09T22:47:43.979Z,100283.19
2023-04-09T22:50:13.587Z,100279.25
2023-04-09T22:52:41.032Z,100279.50
2023-04-09T22:55:10.279Z,100279.72
2023-04-09T22:57:38.512Z,100283.19
2023-04-09T23:00:09.196Z,100270.69
2023-04-09T23:02:37.156Z,100284.13
2023-04-09T23:05:05.286Z,100284.25
2023-04-09T23:07:32.708Z,100280.88
2023-04-09T23:10:00.612Z,100276.72
2023-04-09T23:12:27.931Z,100281.81
2023-04-09T23:14:55.254Z,100275.13
2023-04-09T23:17:24.660Z,100280.88
2023-04-09T23:19:54.718Z,100283.31
2023-04-09T23:22:22.183Z,100279.03
2023-04-09T23:24:49.620Z,100277.88
2023-04-09T23:27:16.990Z,100271.84
2023-04-09T23:29:44.417Z,100272.41
2023-04-09T23:32:11.629Z,100273.88
2023-04-09T23:34:40.357Z,100272.28
2023-04-09T23:37:08.164Z,100272.50
2023-04-09T23:39:35.489Z,100267.66
2023-04-09T23:42:03.218Z,100268.94
2023-04-09T23:44:30.780Z,100274.16
2023-04-09T23:46:59.467Z,100276.50
2023-04-09T23:49:27.488Z,100280.63
2023-04-09T23:51:56.128Z,100273.56
2023-04-09T23:54:23.683Z,100279.72
2023-04-09T23:56:50.966Z,100280.16
2023-04-09T23:59:18.409Z,100272.06
